sensor_id;sensor_type;location;lat;lon;timestamp;P1;durP1;ratioP1;P2;durP2;ratioP2
15194;SDS011;7698;42.478;23.756;2023-04-15T00:02:16;2.35;;;2.15;;
15194;SDS011;7698;42.478;23.756;2023-04-15T00:04:44;2.58;;;2.38;;
15194;SDS011;7698;42.478;23.756;2023-04-15T00:07:12;2.67;;;2.30;;
15194;SDS011;7698;42.478;23.756;2023-04-15T00:09:39;2.90;;;2.60;;
15194;SDS011;7698;42.478;23.756;2023-04-15T00:12:06;4.03;;;3.17;;
15194;SDS011;7698;42.478;23.756;2023-04-15T00:14:34;3.40;;;2.40;;
15194;SDS011;7698;42.478;23.756;2023-04-15T00:17:01;2.17;;;1.98;;
15194;SDS011;7698;42.478;23.756;2023-04-15T00:19:28;3.75;;;2.60;;
15194;SDS011;7698;42.478;23.756;2023-04-15T00:21:54;2.40;;;2.20;;
15194;SDS011;7698;42.478;23.756;2023-04-15T00:24:23;4.07;;;3.58;;
15194;SDS011;7698;42.478;23.756;2023-04-15T00:26:50;3.80;;;3.08;;
15194;SDS011;7698;42.478;23.756;2023-04-15T00:29:16;3.72;;;3.42;;
15194;SDS011;7698;42.478;23.756;2023-04-15T00:31:43;1.83;;;1.73;;
15194;SDS011;7698;42.478;23.756;2023-04-15T00:34:10;2.53;;;2.33;;
15194;SDS011;7698;42.478;23.756;2023-04-15T00:36:37;2.13;;;1.92;;
15194;SDS011;7698;42.478;23.756;2023-04-15T00:39:03;2.13;;;1.85;;
15194;SDS011;7698;42.478;23.756;2023-04-15T00:41:32;1.77;;;1.55;;
15194;SDS011;7698;42.478;23.756;2023-04-15T00:43:59;1.52;;;1.42;;
15194;SDS011;7698;42.478;23.756;2023-04-15T00:46:28;2.47;;;2.25;;
15194;SDS011;7698;42.478;23.756;2023-04-15T00:48:57;2.50;;;2.20;;
15194;SDS011;7698;42.478;23.756;2023-04-15T00:51:23;2.72;;;1.98;;
15194;SDS011;7698;42.478;23.756;2023-04-15T00:53:50;5.75;;;3.55;;
15194;SDS011;7698;42.478;23.756;2023-04-15T00:56:17;17.30;;;9.68;;
15194;SDS011;7698;42.478;23.756;2023-04-15T00:58:49;7.72;;;5.03;;
15194;SDS011;7698;42.478;23.756;2023-04-15T01:01:17;9.40;;;6.55;;
15194;SDS011;7698;42.478;23.756;2023-04-15T01:03:47;6.93;;;5.05;;
15194;SDS011;7698;42.478;23.756;2023-04-15T01:06:15;6.53;;;4.72;;
15194;SDS011;7698;42.478;23.756;2023-04-15T01:08:42;8.45;;;5.70;;
15194;SDS011;7698;42.478;23.756;2023-04-15T01:11:09;4.38;;;3.47;;
15194;SDS011;7698;42.478;23.756;2023-04-15T01:13:38;3.50;;;2.58;;
15194;SDS011;7698;42.478;23.756;2023-04-15T01:16:07;5.13;;;3.92;;
15194;SDS011;7698;42.478;23.756;2023-04-15T01:18:34;3.25;;;2.95;;
15194;SDS011;7698;42.478;23.756;2023-04-15T01:21:03;4.63;;;3.85;;
15194;SDS011;7698;42.478;23.756;2023-04-15T01:23:31;4.15;;;3.72;;
15194;SDS011;7698;42.478;23.756;2023-04-15T01:26:02;3.97;;;3.38;;
15194;SDS011;7698;42.478;23.756;2023-04-15T01:28:29;4.95;;;3.53;;
15194;SDS011;7698;42.478;23.756;2023-04-15T01:31:06;4.32;;;3.55;;
15194;SDS011;7698;42.478;23.756;2023-04-15T01:33:34;2.25;;;1.98;;
15194;SDS011;7698;42.478;23.756;2023-04-15T01:36:02;2.72;;;2.53;;
15194;SDS011;7698;42.478;23.756;2023-04-15T01:38:29;3.28;;;2.97;;
15194;SDS011;7698;42.478;23.756;2023-04-15T01:40:57;2.38;;;2.17;;
15194;SDS011;7698;42.478;23.756;2023-04-15T01:43:25;3.78;;;2.67;;
15194;SDS011;7698;42.478;23.756;2023-04-15T01:45:53;2.33;;;2.10;;
15194;SDS011;7698;42.478;23.756;2023-04-15T01:48:20;2.65;;;2.45;;
15194;SDS011;7698;42.478;23.756;2023-04-15T01:50:47;2.20;;;1.98;;
15194;SDS011;7698;42.478;23.756;2023-04-15T01:53:14;2.85;;;2.55;;
15194;SDS011;7698;42.478;23.756;2023-04-15T01:55:41;1.80;;;1.70;;
15194;SDS011;7698;42.478;23.756;2023-04-15T01:58:07;2.58;;;2.38;;
15194;SDS011;7698;42.478;23.756;2023-04-15T02:00:36;2.83;;;2.03;;
15194;SDS011;7698;42.478;23.756;2023-04-15T02:03:02;2.60;;;2.25;;
15194;SDS011;7698;42.478;23.756;2023-04-15T02:05:30;3.30;;;3.00;;
15194;SDS011;7698;42.478;23.756;2023-04-15T02:07:57;3.83;;;2.70;;
15194;SDS011;7698;42.478;23.756;2023-04-15T02:10:24;3.53;;;2.75;;
15194;SDS011;7698;42.478;23.756;2023-04-15T02:12:51;3.00;;;2.70;;
15194;SDS011;7698;42.478;23.756;2023-04-15T02:15:18;4.68;;;2.67;;
15194;SDS011;7698;42.478;23.756;2023-04-15T02:17:46;2.40;;;2.20;;
15194;SDS011;7698;42.478;23.756;2023-04-15T02:20:15;3.03;;;2.72;;
15194;SDS011;7698;42.478;23.756;2023-04-15T02:22:42;2.78;;;2.45;;
15194;SDS011;7698;42.478;23.756;2023-04-15T02:25:08;3.47;;;3.17;;
15194;SDS011;7698;42.478;23.756;2023-04-15T02:27:35;3.03;;;2.72;;
15194;SDS011;7698;42.478;23.756;2023-04-15T02:30:02;2.88;;;2.50;;
15194;SDS011;7698;42.478;23.756;2023-04-15T02:32:31;2.90;;;2.60;;
15194;SDS011;7698;42.478;23.756;2023-04-15T02:35:02;3.25;;;2.92;;
15194;SDS011;7698;42.478;23.756;2023-04-15T02:37:29;2.25;;;2.05;;
15194;SDS011;7698;42.478;23.756;2023-04-15T02:39:59;2.65;;;2.08;;
15194;SDS011;7698;42.478;23.756;2023-04-15T02:42:26;3.10;;;2.80;;
15194;SDS011;7698;42.478;23.756;2023-04-15T02:44:54;2.55;;;2.35;;
15194;SDS011;7698;42.478;23.756;2023-04-15T02:47:22;3.78;;;3.33;;
15194;SDS011;7698;42.478;23.756;2023-04-15T02:49:49;4.30;;;3.90;;
15194;SDS011;7698;42.478;23.756;2023-04-15T02:52:17;3.90;;;3.35;;
15194;SDS011;7698;42.478;23.756;2023-04-15T02:54:44;3.90;;;3.50;;
15194;SDS011;7698;42.478;23.756;2023-04-15T02:57:10;6.13;;;4.65;;
15194;SDS011;7698;42.478;23.756;2023-04-15T02:59:37;5.40;;;4.20;;
15194;SDS011;7698;42.478;23.756;2023-04-15T03:02:04;4.55;;;3.55;;
15194;SDS011;7698;42.478;23.756;2023-04-15T03:04:31;5.13;;;4.18;;
15194;SDS011;7698;42.478;23.756;2023-04-15T03:06:59;4.90;;;3.85;;
15194;SDS011;7698;42.478;23.756;2023-04-15T03:09:28;5.30;;;4.22;;
15194;SDS011;7698;42.478;23.756;2023-04-15T03:11:55;4.15;;;3.38;;
15194;SDS011;7698;42.478;23.756;2023-04-15T03:14:22;3.78;;;3.00;;
15194;SDS011;7698;42.478;23.756;2023-04-15T03:16:49;3.58;;;3.03;;
15194;SDS011;7698;42.478;23.756;2023-04-15T03:19:16;5.22;;;4.25;;
15194;SDS011;7698;42.478;23.756;2023-04-15T03:21:43;5.10;;;4.28;;
15194;SDS011;7698;42.478;23.756;2023-04-15T03:24:09;7.63;;;6.88;;
15194;SDS011;7698;42.478;23.756;2023-04-15T03:26:38;5.88;;;5.22;;
15194;SDS011;7698;42.478;23.756;2023-04-15T03:29:04;5.85;;;5.35;;
15194;SDS011;7698;42.478;23.756;2023-04-15T03:31:31;5.05;;;4.65;;
15194;SDS011;7698;42.478;23.756;2023-04-15T03:33:58;3.78;;;3.42;;
15194;SDS011;7698;42.478;23.756;2023-04-15T03:36:25;3.70;;;3.25;;
15194;SDS011;7698;42.478;23.756;2023-04-15T03:38:52;3.40;;;2.50;;
15194;SDS011;7698;42.478;23.756;2023-04-15T03:41:19;2.92;;;2.72;;
15194;SDS011;7698;42.478;23.756;2023-04-15T03:43:47;3.25;;;2.92;;
15194;SDS011;7698;42.478;23.756;2023-04-15T03:46:16;9.30;;;5.32;;
15194;SDS011;7698;42.478;23.756;2023-04-15T03:48:43;4.03;;;3.47;;
15194;SDS011;7698;42.478;23.756;2023-04-15T03:51:09;5.63;;;4.63;;
15194;SDS011;7698;42.478;23.756;2023-04-15T03:53:36;4.00;;;3.58;;
15194;SDS011;7698;42.478;23.756;2023-04-15T03:56:03;3.10;;;2.80;;
15194;SDS011;7698;42.478;23.756;2023-04-15T03:58:30;6.00;;;4.30;;
15194;SDS011;7698;42.478;23.756;2023-04-15T04:00:59;4.18;;;3.80;;
15194;SDS011;7698;42.478;23.756;2023-04-15T04:03:26;4.75;;;4.25;;
15194;SDS011;7698;42.478;23.756;2023-04-15T04:05:52;3.42;;;3.05;;
15194;SDS011;7698;42.478;23.756;2023-04-15T04:08:19;4.65;;;4.25;;
15194;SDS011;7698;42.478;23.756;2023-04-15T04:10:46;3.92;;;3.53;;
15194;SDS011;7698;42.478;23.756;2023-04-15T04:13:13;3.72;;;3.42;;
15194;SDS011;7698;42.478;23.756;2023-04-15T04:15:40;4.78;;;3.95;;
15194;SDS011;7698;42.478;23.756;2023-04-15T04:18:08;3.38;;;3.08;;
15194;SDS011;7698;42.478;23.756;2023-04-15T04:20:35;5.32;;;4.57;;
15194;SDS011;7698;42.478;23.756;2023-04-15T04:23:02;8.32;;;4.72;;
15194;SDS011;7698;42.478;23.756;2023-04-15T04:25:29;4.68;;;3.92;;
15194;SDS011;7698;42.478;23.756;2023-04-15T04:27:56;7.00;;;6.18;;
15194;SDS011;7698;42.478;23.756;2023-04-15T04:30:23;8.45;;;7.30;;
15194;SDS011;7698;42.478;23.756;2023-04-15T04:32:49;13.23;;;9.45;;
15194;SDS011;7698;42.478;23.756;2023-04-15T04:35:18;14.95;;;10.73;;
15194;SDS011;7698;42.478;23.756;2023-04-15T04:37:45;15.82;;;11.68;;
15194;SDS011;7698;42.478;23.756;2023-04-15T04:40:12;12.52;;;9.50;;
15194;SDS011;7698;42.478;23.756;2023-04-15T04:42:39;16.58;;;11.07;;
15194;SDS011;7698;42.478;23.756;2023-04-15T04:45:06;14.43;;;10.43;;
15194;SDS011;7698;42.478;23.756;2023-04-15T04:47:34;16.90;;;11.00;;
15194;SDS011;7698;42.478;23.756;2023-04-15T04:50:01;14.40;;;9.57;;
15194;SDS011;7698;42.478;23.756;2023-04-15T04:52:29;9.40;;;6.93;;
15194;SDS011;7698;42.478;23.756;2023-04-15T04:54:56;10.43;;;7.93;;
15194;SDS011;7698;42.478;23.756;2023-04-15T04:57:23;10.50;;;7.25;;
15194;SDS011;7698;42.478;23.756;2023-04-15T04:59:50;7.03;;;5.88;;
15194;SDS011;7698;42.478;23.756;2023-04-15T05:02:17;7.05;;;6.00;;
15194;SDS011;7698;42.478;23.756;2023-04-15T05:04:44;6.72;;;5.38;;
15194;SDS011;7698;42.478;23.756;2023-04-15T05:07:11;5.90;;;4.90;;
15194;SDS011;7698;42.478;23.756;2023-04-15T05:09:39;7.00;;;5.25;;
15194;SDS011;7698;42.478;23.756;2023-04-15T05:12:06;4.35;;;3.88;;
15194;SDS011;7698;42.478;23.756;2023-04-15T05:14:39;8.35;;;7.05;;
15194;SDS011;7698;42.478;23.756;2023-04-15T05:17:06;7.32;;;4.97;;
15194;SDS011;7698;42.478;23.756;2023-04-15T05:19:33;21.48;;;15.55;;
15194;SDS011;7698;42.478;23.756;2023-04-15T05:22:00;5.90;;;4.97;;
15194;SDS011;7698;42.478;23.756;2023-04-15T05:24:27;3.03;;;2.72;;
15194;SDS011;7698;42.478;23.756;2023-04-15T05:26:55;5.90;;;3.45;;
15194;SDS011;7698;42.478;23.756;2023-04-15T05:29:22;3.03;;;2.63;;
15194;SDS011;7698;42.478;23.756;2023-04-15T05:31:49;4.50;;;3.45;;
15194;SDS011;7698;42.478;23.756;2023-04-15T05:34:16;2.78;;;2.33;;
15194;SDS011;7698;42.478;23.756;2023-04-15T05:36:43;2.35;;;2.15;;
15194;SDS011;7698;42.478;23.756;2023-04-15T05:39:10;2.50;;;2.30;;
15194;SDS011;7698;42.478;23.756;2023-04-15T05:41:37;2.25;;;2.13;;
15194;SDS011;7698;42.478;23.756;2023-04-15T05:44:05;2.65;;;2.45;;
15194;SDS011;7698;42.478;23.756;2023-04-15T05:46:32;3.13;;;2.40;;
15194;SDS011;7698;42.478;23.756;2023-04-15T05:48:58;2.72;;;2.42;;
15194;SDS011;7698;42.478;23.756;2023-04-15T05:51:25;2.40;;;2.17;;
15194;SDS011;7698;42.478;23.756;2023-04-15T05:53:52;2.50;;;2.28;;
15194;SDS011;7698;42.478;23.756;2023-04-15T05:56:19;3.00;;;2.65;;
15194;SDS011;7698;42.478;23.756;2023-04-15T05:58:46;3.00;;;2.70;;
15194;SDS011;7698;42.478;23.756;2023-04-15T06:01:14;4.18;;;2.70;;
15194;SDS011;7698;42.478;23.756;2023-04-15T06:03:41;3.78;;;3.28;;
15194;SDS011;7698;42.478;23.756;2023-04-15T06:06:08;2.53;;;2.30;;
15194;SDS011;7698;42.478;23.756;2023-04-15T06:08:35;2.53;;;2.33;;
15194;SDS011;7698;42.478;23.756;2023-04-15T06:11:02;2.50;;;2.28;;
15194;SDS011;7698;42.478;23.756;2023-04-15T06:13:30;3.30;;;2.38;;
15194;SDS011;7698;42.478;23.756;2023-04-15T06:15:56;3.47;;;2.90;;
15194;SDS011;7698;42.478;23.756;2023-04-15T06:18:25;2.38;;;2.17;;
15194;SDS011;7698;42.478;23.756;2023-04-15T06:20:52;2.67;;;2.30;;
15194;SDS011;7698;42.478;23.756;2023-04-15T06:23:18;2.50;;;2.30;;
15194;SDS011;7698;42.478;23.756;2023-04-15T06:25:45;2.30;;;2.10;;
15194;SDS011;7698;42.478;23.756;2023-04-15T06:28:12;2.50;;;2.30;;
15194;SDS011;7698;42.478;23.756;2023-04-15T06:30:39;3.15;;;2.38;;
15194;SDS011;7698;42.478;23.756;2023-04-15T06:33:06;2.35;;;2.15;;
15194;SDS011;7698;42.478;23.756;2023-04-15T06:35:36;2.75;;;2.40;;
15194;SDS011;7698;42.478;23.756;2023-04-15T06:38:03;2.30;;;2.10;;
15194;SDS011;7698;42.478;23.756;2023-04-15T06:40:30;9.30;;;7.25;;
15194;SDS011;7698;42.478;23.756;2023-04-15T06:42:57;2.67;;;2.30;;
15194;SDS011;7698;42.478;23.756;2023-04-15T06:45:24;2.45;;;2.35;;
15194;SDS011;7698;42.478;23.756;2023-04-15T06:47:50;2.53;;;1.70;;
15194;SDS011;7698;42.478;23.756;2023-04-15T06:50:17;2.90;;;1.80;;
15194;SDS011;7698;42.478;23.756;2023-04-15T06:52:45;2.22;;;1.60;;
15194;SDS011;7698;42.478;23.756;2023-04-15T06:55:12;2.28;;;1.95;;
15194;SDS011;7698;42.478;23.756;2023-04-15T06:57:39;2.28;;;2.00;;
15194;SDS011;7698;42.478;23.756;2023-04-15T07:00:07;2.35;;;2.08;;
15194;SDS011;7698;42.478;23.756;2023-04-15T07:02:35;1.77;;;1.67;;
15194;SDS011;7698;42.478;23.756;2023-04-15T07:05:02;1.65;;;1.40;;
15194;SDS011;7698;42.478;23.756;2023-04-15T07:07:30;1.85;;;1.75;;
15194;SDS011;7698;42.478;23.756;2023-04-15T07:09:58;2.55;;;2.10;;
15194;SDS011;7698;42.478;23.756;2023-04-15T07:12:26;2.75;;;1.80;;
15194;SDS011;7698;42.478;23.756;2023-04-15T07:14:53;2.10;;;1.90;;
15194;SDS011;7698;42.478;23.756;2023-04-15T07:17:20;3.25;;;2.00;;
15194;SDS011;7698;42.478;23.756;2023-04-15T07:19:46;2.78;;;1.80;;
15194;SDS011;7698;42.478;23.756;2023-04-15T07:22:13;1.77;;;1.67;;
15194;SDS011;7698;42.478;23.756;2023-04-15T07:24:40;2.90;;;1.75;;
15194;SDS011;7698;42.478;23.756;2023-04-15T07:27:08;2.55;;;1.63;;
15194;SDS011;7698;42.478;23.756;2023-04-15T07:29:35;2.10;;;1.88;;
15194;SDS011;7698;42.478;23.756;2023-04-15T07:32:02;3.47;;;2.13;;
15194;SDS011;7698;42.478;23.756;2023-04-15T07:34:29;2.42;;;1.50;;
15194;SDS011;7698;42.478;23.756;2023-04-15T07:36:56;1.40;;;1.30;;
15194;SDS011;7698;42.478;23.756;2023-04-15T07:39:23;1.45;;;0.95;;
15194;SDS011;7698;42.478;23.756;2023-04-15T07:41:50;1.92;;;1.48;;
15194;SDS011;7698;42.478;23.756;2023-04-15T07:44:18;1.67;;;1.10;;
15194;SDS011;7698;42.478;23.756;2023-04-15T07:46:46;4.75;;;1.02;;
15194;SDS011;7698;42.478;23.756;2023-04-15T07:49:13;2.05;;;1.30;;
15194;SDS011;7698;42.478;23.756;2023-04-15T07:51:40;1.20;;;1.10;;
15194;SDS011;7698;42.478;23.756;2023-04-15T07:54:08;1.23;;;1.10;;
15194;SDS011;7698;42.478;23.756;2023-04-15T07:56:35;1.63;;;1.17;;
15194;SDS011;7698;42.478;23.756;2023-04-15T07:59:02;0.98;;;0.90;;
15194;SDS011;7698;42.478;23.756;2023-04-15T08:01:31;1.90;;;1.15;;
15194;SDS011;7698;42.478;23.756;2023-04-15T08:03:58;2.75;;;1.27;;
15194;SDS011;7698;42.478;23.756;2023-04-15T08:06:25;2.05;;;1.40;;
15194;SDS011;7698;42.478;23.756;2023-04-15T08:08:53;3.20;;;1.38;;
15194;SDS011;7698;42.478;23.756;2023-04-15T08:11:20;3.28;;;1.23;;
15194;SDS011;7698;42.478;23.756;2023-04-15T08:13:47;1.55;;;0.80;;
15194;SDS011;7698;42.478;23.756;2023-04-15T08:16:17;1.27;;;0.90;;
15194;SDS011;7698;42.478;23.756;2023-04-15T08:18:48;1.15;;;0.57;;
15194;SDS011;7698;42.478;23.756;2023-04-15T08:21:16;2.47;;;1.10;;
15194;SDS011;7698;42.478;23.756;2023-04-15T08:23:45;1.80;;;1.35;;
15194;SDS011;7698;42.478;23.756;2023-04-15T08:26:13;4.15;;;1.13;;
15194;SDS011;7698;42.478;23.756;2023-04-15T08:28:40;2.60;;;0.90;;
15194;SDS011;7698;42.478;23.756;2023-04-15T08:31:08;1.58;;;0.90;;
15194;SDS011;7698;42.478;23.756;2023-04-15T08:33:35;1.20;;;0.80;;
15194;SDS011;7698;42.478;23.756;2023-04-15T08:36:03;1.83;;;1.25;;
15194;SDS011;7698;42.478;23.756;2023-04-15T08:38:31;2.45;;;0.98;;
15194;SDS011;7698;42.478;23.756;2023-04-15T08:40:59;1.52;;;0.93;;
15194;SDS011;7698;42.478;23.756;2023-04-15T08:43:32;2.05;;;1.10;;
15194;SDS011;7698;42.478;23.756;2023-04-15T08:46:00;0.85;;;0.82;;
15194;SDS011;7698;42.478;23.756;2023-04-15T08:48:31;2.95;;;2.00;;
15194;SDS011;7698;42.478;23.756;2023-04-15T08:50:58;4.32;;;3.30;;
15194;SDS011;7698;42.478;23.756;2023-04-15T08:53:28;3.05;;;1.70;;
15194;SDS011;7698;42.478;23.756;2023-04-15T08:55:56;1.73;;;1.50;;
15194;SDS011;7698;42.478;23.756;2023-04-15T08:58:25;1.25;;;1.02;;
15194;SDS011;7698;42.478;23.756;2023-04-15T09:00:53;3.75;;;2.38;;
15194;SDS011;7698;42.478;23.756;2023-04-15T09:03:21;1.92;;;1.30;;
15194;SDS011;7698;42.478;23.756;2023-04-15T09:05:49;1.52;;;1.05;;
15194;SDS011;7698;42.478;23.756;2023-04-15T09:08:16;1.45;;;1.20;;
15194;SDS011;7698;42.478;23.756;2023-04-15T09:10:44;1.65;;;1.35;;
15194;SDS011;7698;42.478;23.756;2023-04-15T09:13:10;1.30;;;0.70;;
15194;SDS011;7698;42.478;23.756;2023-04-15T09:15:37;1.00;;;0.70;;
15194;SDS011;7698;42.478;23.756;2023-04-15T09:18:04;1.33;;;0.85;;
15194;SDS011;7698;42.478;23.756;2023-04-15T09:20:37;1.45;;;0.98;;
15194;SDS011;7698;42.478;23.756;2023-04-15T09:23:10;2.25;;;1.00;;
15194;SDS011;7698;42.478;23.756;2023-04-15T09:25:38;1.33;;;0.88;;
15194;SDS011;7698;42.478;23.756;2023-04-15T09:28:08;1.50;;;0.82;;
15194;SDS011;7698;42.478;23.756;2023-04-15T09:30:35;1.73;;;1.02;;
15194;SDS011;7698;42.478;23.756;2023-04-15T09:33:03;2.70;;;0.95;;
15194;SDS011;7698;42.478;23.756;2023-04-15T09:49:08;2.40;;;0.95;;
15194;SDS011;7698;42.478;23.756;2023-04-15T09:51:36;1.23;;;0.90;;
15194;SDS011;7698;42.478;23.756;2023-04-15T09:54:03;3.30;;;1.13;;
15194;SDS011;7698;42.478;23.756;2023-04-15T09:56:31;1.73;;;1.02;;
15194;SDS011;7698;42.478;23.756;2023-04-15T09:59:00;2.15;;;1.35;;
15194;SDS011;7698;42.478;23.756;2023-04-15T10:01:27;1.80;;;0.95;;
15194;SDS011;7698;42.478;23.756;2023-04-15T10:03:56;1.90;;;0.85;;
15194;SDS011;7698;42.478;23.756;2023-04-15T10:06:23;1.20;;;0.90;;
15194;SDS011;7698;42.478;23.756;2023-04-15T10:08:51;2.00;;;1.08;;
15194;SDS011;7698;42.478;23.756;2023-04-15T10:11:19;1.50;;;0.93;;
15194;SDS011;7698;42.478;23.756;2023-04-15T10:13:48;0.82;;;0.82;;
15194;SDS011;7698;42.478;23.756;2023-04-15T10:16:18;1.10;;;0.93;;
15194;SDS011;7698;42.478;23.756;2023-04-15T10:18:47;1.85;;;1.00;;
15194;SDS011;7698;42.478;23.756;2023-04-15T10:21:21;3.95;;;1.38;;
15194;SDS011;7698;42.478;23.756;2023-04-15T10:23:48;1.23;;;0.70;;
15194;SDS011;7698;42.478;23.756;2023-04-15T10:26:15;2.22;;;0.93;;
15194;SDS011;7698;42.478;23.756;2023-04-15T10:28:42;2.78;;;0.70;;
15194;SDS011;7698;42.478;23.756;2023-04-15T10:35:10;2.47;;;1.20;;
15194;SDS011;7698;42.478;23.756;2023-04-15T10:37:38;1.23;;;1.10;;
15194;SDS011;7698;42.478;23.756;2023-04-15T10:40:22;1.67;;;0.82;;
15194;SDS011;7698;42.478;23.756;2023-04-15T10:42:51;1.42;;;1.05;;
15194;SDS011;7698;42.478;23.756;2023-04-15T10:45:19;1.88;;;1.15;;
15194;SDS011;7698;42.478;23.756;2023-04-15T10:47:48;1.23;;;1.13;;
15194;SDS011;7698;42.478;23.756;2023-04-15T10:50:19;1.00;;;0.95;;
15194;SDS011;7698;42.478;23.756;2023-04-15T10:52:49;1.08;;;0.98;;
15194;SDS011;7698;42.478;23.756;2023-04-15T10:55:18;1.00;;;0.88;;
15194;SDS011;7698;42.478;23.756;2023-04-15T10:57:50;0.82;;;0.80;;
15194;SDS011;7698;42.478;23.756;2023-04-15T11:00:18;1.08;;;0.98;;
15194;SDS011;7698;42.478;23.756;2023-04-15T11:02:47;1.08;;;0.90;;
15194;SDS011;7698;42.478;23.756;2023-04-15T11:05:20;1.40;;;1.00;;
15194;SDS011;7698;42.478;23.756;2023-04-15T11:07:51;1.13;;;0.90;;
15194;SDS011;7698;42.478;23.756;2023-04-15T11:13:26;3.75;;;1.10;;
15194;SDS011;7698;42.478;23.756;2023-04-15T11:15:58;1.50;;;0.80;;
15194;SDS011;7698;42.478;23.756;2023-04-15T11:18:27;2.00;;;0.98;;
15194;SDS011;7698;42.478;23.756;2023-04-15T11:20:57;2.00;;;1.00;;
15194;SDS011;7698;42.478;23.756;2023-04-15T11:23:30;1.30;;;1.05;;
15194;SDS011;7698;42.478;23.756;2023-04-15T11:26:04;1.02;;;0.80;;
15194;SDS011;7698;42.478;23.756;2023-04-15T11:28:33;3.22;;;1.90;;
15194;SDS011;7698;42.478;23.756;2023-04-15T11:31:05;1.73;;;1.20;;
15194;SDS011;7698;42.478;23.756;2023-04-15T11:33:34;1.20;;;0.70;;
15194;SDS011;7698;42.478;23.756;2023-04-15T11:36:03;1.15;;;1.00;;
15194;SDS011;7698;42.478;23.756;2023-04-15T11:38:30;0.75;;;0.75;;
15194;SDS011;7698;42.478;23.756;2023-04-15T11:40:57;1.67;;;1.10;;
15194;SDS011;7698;42.478;23.756;2023-04-15T11:43:24;0.60;;;0.60;;
15194;SDS011;7698;42.478;23.756;2023-04-15T11:45:51;1.15;;;1.05;;
15194;SDS011;7698;42.478;23.756;2023-04-15T11:48:20;2.05;;;1.00;;
15194;SDS011;7698;42.478;23.756;2023-04-15T11:50:52;2.05;;;0.80;;
15194;SDS011;7698;42.478;23.756;2023-04-15T11:53:22;1.27;;;0.60;;
15194;SDS011;7698;42.478;23.756;2023-04-15T11:55:50;1.80;;;0.70;;
15194;SDS011;7698;42.478;23.756;2023-04-15T11:58:19;1.63;;;0.98;;
15194;SDS011;7698;42.478;23.756;2023-04-15T12:00:48;1.08;;;0.90;;
15194;SDS011;7698;42.478;23.756;2023-04-15T12:03:20;0.60;;;0.60;;
15194;SDS011;7698;42.478;23.756;2023-04-15T12:06:07;1.02;;;0.70;;
15194;SDS011;7698;42.478;23.756;2023-04-15T12:08:48;1.50;;;0.98;;
15194;SDS011;7698;42.478;23.756;2023-04-15T12:11:30;1.63;;;0.93;;
15194;SDS011;7698;42.478;23.756;2023-04-15T12:14:08;1.10;;;0.90;;
15194;SDS011;7698;42.478;23.756;2023-04-15T12:16:38;1.38;;;0.90;;
15194;SDS011;7698;42.478;23.756;2023-04-15T12:19:08;1.10;;;1.00;;
15194;SDS011;7698;42.478;23.756;2023-04-15T12:21:37;1.75;;;1.40;;
15194;SDS011;7698;42.478;23.756;2023-04-15T12:24:07;2.97;;;1.60;;
15194;SDS011;7698;42.478;23.756;2023-04-15T12:26:35;2.42;;;2.20;;
15194;SDS011;7698;42.478;23.756;2023-04-15T12:29:04;2.00;;;1.63;;
15194;SDS011;7698;42.478;23.756;2023-04-15T12:31:32;1.50;;;1.40;;
15194;SDS011;7698;42.478;23.756;2023-04-15T12:34:01;1.92;;;1.73;;
15194;SDS011;7698;42.478;23.756;2023-04-15T12:36:29;1.50;;;1.05;;
15194;SDS011;7698;42.478;23.756;2023-04-15T12:39:00;1.83;;;0.90;;
15194;SDS011;7698;42.478;23.756;2023-04-15T12:41:29;1.48;;;0.88;;
15194;SDS011;7698;42.478;23.756;2023-04-15T12:43:56;2.42;;;0.70;;
15194;SDS011;7698;42.478;23.756;2023-04-15T12:46:24;2.05;;;0.75;;
15194;SDS011;7698;42.478;23.756;2023-04-15T12:48:51;1.58;;;0.85;;
15194;SDS011;7698;42.478;23.756;2023-04-15T12:51:18;1.02;;;0.73;;
15194;SDS011;7698;42.478;23.756;2023-04-15T12:53:46;1.48;;;1.20;;
15194;SDS011;7698;42.478;23.756;2023-04-15T12:56:13;2.13;;;1.55;;
15194;SDS011;7698;42.478;23.756;2023-04-15T12:58:42;1.55;;;1.10;;
15194;SDS011;7698;42.478;23.756;2023-04-15T13:01:09;0.70;;;0.70;;
15194;SDS011;7698;42.478;23.756;2023-04-15T13:03:36;1.55;;;1.30;;
15194;SDS011;7698;42.478;23.756;2023-04-15T13:06:03;1.70;;;1.20;;
15194;SDS011;7698;42.478;23.756;2023-04-15T13:08:31;1.15;;;1.00;;
15194;SDS011;7698;42.478;23.756;2023-04-15T13:10:57;1.25;;;0.90;;
15194;SDS011;7698;42.478;23.756;2023-04-15T13:13:25;1.15;;;0.93;;
15194;SDS011;7698;42.478;23.756;2023-04-15T13:15:54;2.42;;;1.10;;
15194;SDS011;7698;42.478;23.756;2023-04-15T13:18:21;1.83;;;0.88;;
15194;SDS011;7698;42.478;23.756;2023-04-15T13:20:48;1.65;;;0.90;;
15194;SDS011;7698;42.478;23.756;2023-04-15T13:23:15;1.10;;;1.00;;
15194;SDS011;7698;42.478;23.756;2023-04-15T13:25:42;0.98;;;0.98;;
15194;SDS011;7698;42.478;23.756;2023-04-15T13:28:09;1.85;;;0.93;;
15194;SDS011;7698;42.478;23.756;2023-04-15T13:30:37;1.63;;;0.90;;
15194;SDS011;7698;42.478;23.756;2023-04-15T13:33:06;1.85;;;0.75;;
15194;SDS011;7698;42.478;23.756;2023-04-15T13:35:32;1.02;;;0.93;;
15194;SDS011;7698;42.478;23.756;2023-04-15T13:37:59;1.40;;;1.10;;
15194;SDS011;7698;42.478;23.756;2023-04-15T13:40:26;1.25;;;1.10;;
15194;SDS011;7698;42.478;23.756;2023-04-15T13:42:53;2.45;;;1.20;;
15194;SDS011;7698;42.478;23.756;2023-04-15T13:45:20;1.88;;;0.93;;
15194;SDS011;7698;42.478;23.756;2023-04-15T13:47:47;1.60;;;0.90;;
15194;SDS011;7698;42.478;23.756;2023-04-15T13:50:15;0.70;;;0.60;;
15194;SDS011;7698;42.478;23.756;2023-04-15T13:52:43;1.75;;;1.00;;
15194;SDS011;7698;42.478;23.756;2023-04-15T13:55:10;1.00;;;0.90;;
15194;SDS011;7698;42.478;23.756;2023-04-15T13:57:36;1.15;;;1.05;;
15194;SDS011;7698;42.478;23.756;2023-04-15T14:00:04;1.17;;;0.73;;
15194;SDS011;7698;42.478;23.756;2023-04-15T14:02:32;1.85;;;0.90;;
15194;SDS011;7698;42.478;23.756;2023-04-15T14:04:59;1.13;;;1.02;;
15194;SDS011;7698;42.478;23.756;2023-04-15T14:07:29;0.98;;;0.65;;
15194;SDS011;7698;42.478;23.756;2023-04-15T14:09:56;1.77;;;1.00;;
15194;SDS011;7698;42.478;23.756;2023-04-15T14:12:22;1.75;;;0.77;;
15194;SDS011;7698;42.478;23.756;2023-04-15T14:14:49;2.08;;;0.80;;
15194;SDS011;7698;42.478;23.756;2023-04-15T14:17:16;1.63;;;0.80;;
15194;SDS011;7698;42.478;23.756;2023-04-15T14:19:43;0.93;;;0.90;;
15194;SDS011;7698;42.478;23.756;2023-04-15T14:22:11;1.08;;;0.98;;
15194;SDS011;7698;42.478;23.756;2023-04-15T14:24:39;1.67;;;1.08;;
15194;SDS011;7698;42.478;23.756;2023-04-15T14:27:06;0.88;;;0.88;;
15194;SDS011;7698;42.478;23.756;2023-04-15T14:29:35;1.40;;;0.98;;
15194;SDS011;7698;42.478;23.756;2023-04-15T14:32:02;1.25;;;1.10;;
15194;SDS011;7698;42.478;23.756;2023-04-15T14:34:29;6.85;;;4.72;;
15194;SDS011;7698;42.478;23.756;2023-04-15T14:36:56;2.78;;;1.80;;
15194;SDS011;7698;42.478;23.756;2023-04-15T14:39:23;2.38;;;1.50;;
15194;SDS011;7698;42.478;23.756;2023-04-15T14:41:52;1.98;;;1.52;;
15194;SDS011;7698;42.478;23.756;2023-04-15T14:44:20;2.15;;;1.55;;
15194;SDS011;7698;42.478;23.756;2023-04-15T14:46:48;2.08;;;1.20;;
15194;SDS011;7698;42.478;23.756;2023-04-15T14:49:16;1.33;;;1.23;;
15194;SDS011;7698;42.478;23.756;2023-04-15T14:51:43;1.75;;;1.15;;
15194;SDS011;7698;42.478;23.756;2023-04-15T14:54:10;2.00;;;1.38;;
15194;SDS011;7698;42.478;23.756;2023-04-15T14:56:37;1.10;;;1.10;;
15194;SDS011;7698;42.478;23.756;2023-04-15T14:59:05;1.45;;;1.33;;
15194;SDS011;7698;42.478;23.756;2023-04-15T15:01:32;1.20;;;1.10;;
15194;SDS011;7698;42.478;23.756;2023-04-15T15:03:59;1.35;;;1.02;;
15194;SDS011;7698;42.478;23.756;2023-04-15T15:06:27;1.33;;;1.23;;
15194;SDS011;7698;42.478;23.756;2023-04-15T15:08:54;1.05;;;1.00;;
15194;SDS011;7698;42.478;23.756;2023-04-15T15:11:21;1.38;;;1.00;;
15194;SDS011;7698;42.478;23.756;2023-04-15T15:13:48;1.45;;;1.10;;